sensor_id;sensor_type;location;lat;lon;timestamp;pressure;altitude;pressure_sealevel;temperature;humidity
59391;BME280;53405;57.012;40.984;2023-04-20T00:00:02;100890.88;;;7.21;54.47
59391;BME280;53405;57.012;40.984;2023-04-20T00:02:40;100890.06;;;7.21;54.36
59391;BME280;53405;57.012;40.984;2023-04-20T00:05:09;100847.00;;;7.04;54.79
59391;BME280;53405;57.012;40.984;2023-04-20T00:07:38;100860.78;;;7.06;54.57
59391;BME280;53405;57.012;40.984;2023-04-20T00:10:08;100887.31;;;7.22;54.49
59391;BME280;53405;57.012;40.984;2023-04-20T00:12:36;100886.31;;;7.14;55.29
59391;BME280;53405;57.012;40.984;2023-04-20T00:15:04;100892.97;;;7.28;54.61
59391;BME280;53405;57.012;40.984;2023-04-20T00:17:32;100871.59;;;7.22;54.33
59391;BME280;53405;57.012;40.984;2023-04-20T00:20:00;100878.06;;;7.18;54.65
59391;BME280;53405;57.012;40.984;2023-04-20T00:22:31;100879.75;;;7.29;54.63
59391;BME280;53405;57.012;40.984;2023-04-20T00:24:59;100877.41;;;7.36;54.55
59391;BME280;53405;57.012;40.984;2023-04-20T00:27:27;100876.03;;;7.41;53.13
59391;BME280;53405;57.012;40.984;2023-04-20T00:29:55;100865.56;;;7.41;52.66
59391;BME280;53405;57.012;40.984;2023-04-20T00:32:23;100872.16;;;7.46;53.40
59391;BME280;53405;57.012;40.984;2023-04-20T00:34:51;100873.28;;;7.53;52.88
59391;BME280;53405;57.012;40.984;2023-04-20T00:37:18;100888.06;;;7.54;53.02
59391;BME280;53405;57.012;40.984;2023-04-20T00:39:46;100877.41;;;7.46;53.34
59391;BME280;53405;57.012;40.984;2023-04-20T00:42:14;100876.31;;;7.58;53.49
59391;BME280;53405;57.012;40.984;2023-04-20T00:44:41;100866.69;;;7.58;52.55
59391;BME280;53405;57.012;40.984;2023-04-20T00:47:09;100866.81;;;7.57;53.08
59391;BME280;53405;57.012;40.984;2023-04-20T00:49:37;100865.41;;;7.33;54.31
59391;BME280;53405;57.012;40.984;2023-04-20T00:52:05;100866.06;;;7.16;55.45
59391;BME280;53405;57.012;40.984;2023-04-20T00:54:33;100862.88;;;7.22;54.86
59391;BME280;53405;57.012;40.984;2023-04-20T00:57:03;100867.97;;;7.14;55.09
59391;BME280;53405;57.012;40.984;2023-04-20T00:59:34;100859.59;;;7.30;54.50
59391;BME280;53405;57.012;40.984;2023-04-20T01:02:01;100862.25;;;7.39;53.93
59391;BME280;53405;57.012;40.984;2023-04-20T01:04:29;100846.09;;;7.34;53.93
59391;BME280;53405;57.012;40.984;2023-04-20T01:06:57;100851.47;;;7.42;55.06
59391;BME280;53405;57.012;40.984;2023-04-20T01:09:25;100856.31;;;7.47;55.39
59391;BME280;53405;57.012;40.984;2023-04-20T01:11:53;100854.66;;;7.46;55.06
59391;BME280;53405;57.012;40.984;2023-04-20T01:14:20;100851.31;;;7.34;54.63
59391;BME280;53405;57.012;40.984;2023-04-20T01:16:49;100843.72;;;7.31;54.57
59391;BME280;53405;57.012;40.984;2023-04-20T01:19:18;100843.72;;;7.31;54.55
59391;BME280;53405;57.012;40.984;2023-04-20T01:21:46;100849.81;;;7.32;54.47
59391;BME280;53405;57.012;40.984;2023-04-20T01:24:15;100850.09;;;7.29;54.42
59391;BME280;53405;57.012;40.984;2023-04-20T01:26:43;100848.00;;;7.22;54.67
59391;BME280;53405;57.012;40.984;2023-04-20T01:29:11;100847.03;;;7.23;54.66
59391;BME280;53405;57.012;40.984;2023-04-20T01:31:39;100843.56;;;7.13;55.39
59391;BME280;53405;57.012;40.984;2023-04-20T01:34:06;100841.44;;;6.87;55.76
59391;BME280;53405;57.012;40.984;2023-04-20T01:36:34;100809.72;;;6.81;56.31
59391;BME280;53405;57.012;40.984;2023-04-20T01:39:02;100821.06;;;6.91;55.67
59391;BME280;53405;57.012;40.984;2023-04-20T01:41:30;100821.59;;;6.95;55.29
59391;BME280;53405;57.012;40.984;2023-04-20T01:43:59;100832.63;;;6.98;55.94
59391;BME280;53405;57.012;40.984;2023-04-20T01:46:26;100826.88;;;7.04;55.57
59391;BME280;53405;57.012;40.984;2023-04-20T01:48:54;100831.19;;;6.75;56.35
59391;BME280;53405;57.012;40.984;2023-04-20T01:51:22;100829.41;;;6.75;56.82
59391;BME280;53405;57.012;40.984;2023-04-20T01:53:49;100823.00;;;6.89;55.90
59391;BME280;53405;57.012;40.984;2023-04-20T01:56:17;100820.25;;;6.91;55.45
59391;BME280;53405;57.012;40.984;2023-04-20T01:58:45;100786.13;;;6.71;55.37
59391;BME280;53405;57.012;40.984;2023-04-20T02:01:13;100810.16;;;6.86;55.40
59391;BME280;53405;57.012;40.984;2023-04-20T02:03:42;100807.97;;;6.91;56.09
59391;BME280;53405;57.012;40.984;2023-04-20T02:06:10;100811.28;;;6.93;56.45
59391;BME280;53405;57.012;40.984;2023-04-20T02:08:37;100810.28;;;6.84;55.89
59391;BME280;53405;57.012;40.984;2023-04-20T02:11:07;100801.31;;;6.77;55.67
59391;BME280;53405;57.012;40.984;2023-04-20T02:13:35;100798.00;;;6.75;56.22
59391;BME280;53405;57.012;40.984;2023-04-20T02:16:03;100799.34;;;6.69;56.30
59391;BME280;53405;57.012;40.984;2023-04-20T02:18:31;100798.13;;;6.74;56.03
59391;BME280;53405;57.012;40.984;2023-04-20T02:21:00;100791.91;;;6.75;56.73
59391;BME280;53405;57.012;40.984;2023-04-20T02:23:28;100806.00;;;6.74;57.49
59391;BME280;53405;57.012;40.984;2023-04-20T02:25:55;100806.66;;;6.66;58.07
59391;BME280;53405;57.012;40.984;2023-04-20T02:28:23;100798.53;;;6.69;57.41
59391;BME280;53405;57.012;40.984;2023-04-20T02:30:51;100805.28;;;6.72;56.58
59391;BME280;53405;57.012;40.984;2023-04-20T02:33:19;100796.47;;;6.73;56.37
59391;BME280;53405;57.012;40.984;2023-04-20T02:35:52;100790.53;;;6.71;56.90
59391;BME280;53405;57.012;40.984;2023-04-20T02:38:20;100761.16;;;6.57;57.22
59391;BME280;53405;57.012;40.984;2023-04-20T02:40:48;100746.69;;;6.53;57.25
59391;BME280;53405;57.012;40.984;2023-04-20T02:43:17;100790.31;;;6.83;56.81
59391;BME280;53405;57.012;40.984;2023-04-20T02:45:45;100797.50;;;7.01;57.11
59391;BME280;53405;57.012;40.984;2023-04-20T02:48:13;100797.53;;;7.11;57.40
59391;BME280;53405;57.012;40.984;2023-04-20T02:50:41;100790.09;;;7.16;57.78
59391;BME280;53405;57.012;40.984;2023-04-20T02:53:18;100761.66;;;7.01;56.89
59391;BME280;53405;57.012;40.984;2023-04-20T02:55:52;100758.09;;;7.02;57.23
59391;BME280;53405;57.012;40.984;2023-04-20T02:58:33;100755.75;;;6.99;57.17
59391;BME280;53405;57.012;40.984;2023-04-20T03:01:13;100792.31;;;7.30;57.12
59391;BME280;53405;57.012;40.984;2023-04-20T03:03:44;100783.88;;;7.27;57.38
59391;BME280;53405;57.012;40.984;2023-04-20T03:06:13;100797.97;;;7.35;57.61
59391;BME280;53405;57.012;40.984;2023-04-20T03:08:47;100780.72;;;7.42;57.03
59391;BME280;53405;57.012;40.984;2023-04-20T03:11:39;100783.47;;;7.60;56.23
59391;BME280;53405;57.012;40.984;2023-04-20T03:14:09;100791.63;;;7.67;57.54
59391;BME280;53405;57.012;40.984;2023-04-20T03:16:37;100787.19;;;7.68;58.09
59391;BME280;53405;57.012;40.984;2023-04-20T03:19:05;100784.03;;;7.64;58.12
59391;BME280;53405;57.012;40.984;2023-04-20T03:21:33;100782.50;;;7.71;57.42
59391;BME280;53405;57.012;40.984;2023-04-20T03:24:01;100792.56;;;7.86;56.21
59391;BME280;53405;57.012;40.984;2023-04-20T03:26:29;100789.81;;;7.77;55.59
59391;BME280;53405;57.012;40.984;2023-04-20T03:29:15;100759.31;;;7.76;55.41
59391;BME280;53405;57.012;40.984;2023-04-20T03:31:44;100791.56;;;8.06;55.41
59391;BME280;53405;57.012;40.984;2023-04-20T03:34:12;100798.47;;;8.07;53.86
59391;BME280;53405;57.012;40.984;2023-04-20T03:36:40;100784.09;;;8.02;51.81
59391;BME280;53405;57.012;40.984;2023-04-20T03:39:08;100793.22;;;7.97;52.22
59391;BME280;53405;57.012;40.984;2023-04-20T03:41:36;100784.09;;;8.02;51.88
59391;BME280;53405;57.012;40.984;2023-04-20T03:44:04;100784.59;;;8.15;52.29
59391;BME280;53405;57.012;40.984;2023-04-20T03:46:33;100779.22;;;8.26;52.24
59391;BME280;53405;57.012;40.984;2023-04-20T03:49:01;100785.09;;;8.38;52.81
59391;BME280;53405;57.012;40.984;2023-04-20T03:51:30;100783.44;;;8.47;52.32
59391;BME280;53405;57.012;40.984;2023-04-20T03:53:58;100779.41;;;8.53;51.75
59391;BME280;53405;57.012;40.984;2023-04-20T03:56:28;100777.44;;;8.64;51.96
59391;BME280;53405;57.012;40.984;2023-04-20T03:58:56;100792.97;;;8.76;51.64
59391;BME280;53405;57.012;40.984;2023-04-20T04:01:26;100747.22;;;8.50;49.81
59391;BME280;53405;57.012;40.984;2023-04-20T04:03:53;100744.41;;;8.24;50.98
59391;BME280;53405;57.012;40.984;2023-04-20T04:06:21;100782.66;;;8.27;50.73
59391;BME280;53405;57.012;40.984;2023-04-20T04:08:50;100785.00;;;8.30;51.47
59391;BME280;53405;57.012;40.984;2023-04-20T04:11:18;100788.72;;;8.27;51.56
59391;BME280;53405;57.012;40.984;2023-04-20T04:13:48;100787.09;;;8.26;51.99
59391;BME280;53405;57.012;40.984;2023-04-20T04:16:16;100779.19;;;8.36;51.25
59391;BME280;53405;57.012;40.984;2023-04-20T04:18:44;100778.34;;;8.45;51.20
59391;BME280;53405;57.012;40.984;2023-04-20T04:21:13;100774.78;;;8.64;51.46
59391;BME280;53405;57.012;40.984;2023-04-20T04:23:47;100776.50;;;8.83;50.87
59391;BME280;53405;57.012;40.984;2023-04-20T04:26:36;100767.47;;;8.86;49.83
59391;BME280;53405;57.012;40.984;2023-04-20T04:29:04;100768.22;;;8.78;49.39
59391;BME280;53405;57.012;40.984;2023-04-20T04:31:33;100773.13;;;8.63;49.91
59391;BME280;53405;57.012;40.984;2023-04-20T04:34:07;100764.91;;;8.76;51.24
59391;BME280;53405;57.012;40.984;2023-04-20T04:36:42;100760.13;;;8.90;51.17
59391;BME280;53405;57.012;40.984;2023-04-20T04:39:13;100765.63;;;8.96;49.44
59391;BME280;53405;57.012;40.984;2023-04-20T04:41:49;100755.63;;;8.82;49.41
59391;BME280;53405;57.012;40.984;2023-04-20T04:44:26;100754.75;;;8.63;49.62
59391;BME280;53405;57.012;40.984;2023-04-20T04:46:55;100767.06;;;8.63;49.82
59391;BME280;53405;57.012;40.984;2023-04-20T04:49:25;100761.97;;;8.61;49.89
59391;BME280;53405;57.012;40.984;2023-04-20T04:51:53;100755.72;;;8.62;50.16
59391;BME280;53405;57.012;40.984;2023-04-20T04:54:20;100754.97;;;8.70;50.24
59391;BME280;53405;57.012;40.984;2023-04-20T04:56:48;100760.38;;;8.68;50.13
59391;BME280;53405;57.012;40.984;2023-04-20T04:59:16;100756.78;;;8.70;50.65
59391;BME280;53405;57.012;40.984;2023-04-20T05:01:44;100762.44;;;8.75;50.48
59391;BME280;53405;57.012;40.984;2023-04-20T05:04:12;100749.66;;;8.62;50.19
59391;BME280;53405;57.012;40.984;2023-04-20T05:06:39;100766.56;;;8.77;49.83
59391;BME280;53405;57.012;40.984;2023-04-20T05:14:40;100765.97;;;8.56;50.33
59391;BME280;53405;57.012;40.984;2023-04-20T05:17:08;100759.47;;;8.60;50.51
59391;BME280;53405;57.012;40.984;2023-04-20T05:19:35;100753.50;;;8.67;50.48
59391;BME280;53405;57.012;40.984;2023-04-20T05:22:03;100760.50;;;8.77;49.86
59391;BME280;53405;57.012;40.984;2023-04-20T05:24:31;100752.19;;;8.81;49.83
59391;BME280;53405;57.012;40.984;2023-04-20T05:27:01;100752.03;;;9.01;50.91
59391;BME280;53405;57.012;40.984;2023-04-20T05:29:30;100756.69;;;9.07;50.76
59391;BME280;53405;57.012;40.984;2023-04-20T05:31:58;100754.31;;;9.32;49.29
59391;BME280;53405;57.012;40.984;2023-04-20T05:34:26;100752.06;;;9.37;50.44
59391;BME280;53405;57.012;40.984;2023-04-20T05:36:54;100714.78;;;9.42;49.93
59391;BME280;53405;57.012;40.984;2023-04-20T05:39:23;100742.19;;;9.57;49.15
59391;BME280;53405;57.012;40.984;2023-04-20T05:41:52;100752.16;;;9.71;50.06
59391;BME280;53405;57.012;40.984;2023-04-20T05:44:21;100744.81;;;9.83;47.87
59391;BME280;53405;57.012;40.984;2023-04-20T05:46:49;100759.53;;;9.94;48.08
59391;BME280;53405;57.012;40.984;2023-04-20T05:49:17;100753.34;;;10.03;48.00
59391;BME280;53405;57.012;40.984;2023-04-20T05:51:45;100747.56;;;10.00;48.30
59391;BME280;53405;57.012;40.984;2023-04-20T05:54:13;100754.03;;;10.13;48.11
59391;BME280;53405;57.012;40.984;2023-04-20T05:56:40;100756.16;;;10.10;49.08
59391;BME280;53405;57.012;40.984;2023-04-20T05:59:08;100755.72;;;10.23;47.52
59391;BME280;53405;57.012;40.984;2023-04-20T06:01:36;100751.56;;;10.12;47.21
59391;BME280;53405;57.012;40.984;2023-04-20T06:04:04;100749.50;;;9.98;47.97
59391;BME280;53405;57.012;40.984;2023-04-20T06:06:31;100749.50;;;9.98;48.53
59391;BME280;53405;57.012;40.984;2023-04-20T06:09:06;100752.19;;;10.06;48.58
59391;BME280;53405;57.012;40.984;2023-04-20T06:11:35;100745.91;;;9.99;48.89
59391;BME280;53405;57.012;40.984;2023-04-20T06:14:03;100744.94;;;10.00;49.17
59391;BME280;53405;57.012;40.984;2023-04-20T06:16:31;100738.94;;;10.16;48.82
59391;BME280;53405;57.012;40.984;2023-04-20T06:18:58;100745.13;;;10.33;48.80
59391;BME280;53405;57.012;40.984;2023-04-20T06:21:26;100743.50;;;10.40;48.01
59391;BME280;53405;57.012;40.984;2023-04-20T06:23:54;100746.72;;;10.60;48.25
59391;BME280;53405;57.012;40.984;2023-04-20T06:26:22;100739.19;;;10.81;47.16
59391;BME280;53405;57.012;40.984;2023-04-20T06:28:50;100725.91;;;11.08;47.18
59391;BME280;53405;57.012;40.984;2023-04-20T06:31:19;100710.91;;;11.41;47.12
59391;BME280;53405;57.012;40.984;2023-04-20T06:33:47;100727.25;;;11.45;46.67
59391;BME280;53405;57.012;40.984;2023-04-20T06:36:15;100726.56;;;11.67;46.20
59391;BME280;53405;57.012;40.984;2023-04-20T06:38:43;100723.91;;;12.00;44.92
59391;BME280;53405;57.012;40.984;2023-04-20T06:41:12;100730.69;;;12.42;44.17
59391;BME280;53405;57.012;40.984;2023-04-20T06:43:39;100727.53;;;12.39;43.11
59391;BME280;53405;57.012;40.984;2023-04-20T06:46:08;100733.84;;;12.29;43.24
59391;BME280;53405;57.012;40.984;2023-04-20T06:48:36;100729.16;;;12.48;44.44
59391;BME280;53405;57.012;40.984;2023-04-20T06:51:04;100730.19;;;12.70;42.89
59391;BME280;53405;57.012;40.984;2023-04-20T06:53:31;100726.97;;;12.60;42.87
59391;BME280;53405;57.012;40.984;2023-04-20T06:55:59;100719.22;;;12.58;42.06
59391;BME280;53405;57.012;40.984;2023-04-20T06:58:27;100721.56;;;12.76;44.84
59391;BME280;53405;57.012;40.984;2023-04-20T07:00:55;100723.00;;;12.87;43.77
59391;BME280;53405;57.012;40.984;2023-04-20T07:03:22;100717.72;;;13.10;42.73
59391;BME280;53405;57.012;40.984;2023-04-20T07:05:50;100716.78;;;13.26;41.68
59391;BME280;53405;57.012;40.984;2023-04-20T07:08:18;100715.47;;;13.22;40.18
59391;BME280;53405;57.012;40.984;2023-04-20T07:10:46;100698.38;;;13.10;40.82
59391;BME280;53405;57.012;40.984;2023-04-20T07:13:14;100714.56;;;13.38;43.31
59391;BME280;53405;57.012;40.984;2023-04-20T07:15:44;100706.75;;;13.74;42.26
59391;BME280;53405;57.012;40.984;2023-04-20T07:18:11;100715.75;;;14.03;42.43
59391;BME280;53405;57.012;40.984;2023-04-20T07:20:39;100702.75;;;14.23;40.34
59391;BME280;53405;57.012;40.984;2023-04-20T07:23:07;100702.75;;;14.23;37.82
59391;BME280;53405;57.012;40.984;2023-04-20T07:25:35;100705.22;;;14.10;38.30
59391;BME280;53405;57.012;40.984;2023-04-20T07:28:02;100700.28;;;14.07;37.93
59391;BME280;53405;57.012;40.984;2023-04-20T07:30:30;100697.66;;;14.07;38.30
59391;BME280;53405;57.012;40.984;2023-04-20T07:32:58;100698.34;;;14.31;37.27
59391;BME280;53405;57.012;40.984;2023-04-20T07:35:26;100693.91;;;14.16;36.83
59391;BME280;53405;57.012;40.984;2023-04-20T07:37:55;100701.66;;;14.18;37.57
59391;BME280;53405;57.012;40.984;2023-04-20T07:40:22;100701.72;;;14.39;38.23
59391;BME280;53405;57.012;40.984;2023-04-20T07:42:50;100661.22;;;14.60;37.74
59391;BME280;53405;57.012;40.984;2023-04-20T07:45:18;100687.97;;;15.09;36.46
59391;BME280;53405;57.012;40.984;2023-04-20T07:47:47;100685.69;;;15.27;36.71
59391;BME280;53405;57.012;40.984;2023-04-20T07:50:17;100678.63;;;15.34;36.34
59391;BME280;53405;57.012;40.984;2023-04-20T07:52:47;100676.94;;;15.55;36.10
59391;BME280;53405;57.012;40.984;2023-04-20T07:55:14;100678.53;;;15.56;35.37
59391;BME280;53405;57.012;40.984;2023-04-20T07:57:43;100683.97;;;15.69;35.78
59391;BME280;53405;57.012;40.984;2023-04-20T08:00:12;100678.34;;;15.58;36.52
59391;BME280;53405;57.012;40.984;2023-04-20T08:02:45;100672.13;;;16.00;36.37
59391;BME280;53405;57.012;40.984;2023-04-20T08:05:13;100677.94;;;16.24;34.84
59391;BME280;53405;57.012;40.984;2023-04-20T08:07:41;100678.47;;;16.06;34.38
59391;BME280;53405;57.012;40.984;2023-04-20T08:10:14;100656.41;;;15.70;34.69
59391;BME280;53405;57.012;40.984;2023-04-20T08:12:42;100663.84;;;15.82;37.29
59391;BME280;53405;57.012;40.984;2023-04-20T08:15:10;100668.75;;;16.26;35.36
59391;BME280;53405;57.012;40.984;2023-04-20T08:17:39;100664.97;;;16.69;34.00
59391;BME280;53405;57.012;40.984;2023-04-20T08:20:07;100661.56;;;17.02;31.21
59391;BME280;53405;57.012;40.984;2023-04-20T08:22:37;100584.75;;;16.46;30.59
59391;BME280;53405;57.012;40.984;2023-04-20T08:25:05;100659.06;;;16.80;30.14
59391;BME280;53405;57.012;40.984;2023-04-20T08:27:38;100623.72;;;16.93;30.26
59391;BME280;53405;57.012;40.984;2023-04-20T08:30:07;100654.31;;;17.90;26.93
59391;BME280;53405;57.012;40.984;2023-04-20T08:32:36;100644.88;;;17.94;28.76
59391;BME280;53405;57.012;40.984;2023-04-20T08:35:04;100648.06;;;18.54;28.07
59391;BME280;53405;57.012;40.984;2023-04-20T08:37:35;100636.88;;;18.71;27.42
59391;BME280;53405;57.012;40.984;2023-04-20T08:40:04;100644.28;;;18.37;27.29
59391;BME280;53405;57.012;40.984;2023-04-20T08:42:32;100638.13;;;18.68;27.63
59391;BME280;53405;57.012;40.984;2023-04-20T08:45:00;100634.75;;;19.11;27.96
59391;BME280;53405;57.012;40.984;2023-04-20T08:47:34;100640.66;;;19.39;25.28
59391;BME280;53405;57.012;40.984;2023-04-20T08:50:04;100628.88;;;18.71;26.06
59391;BME280;53405;57.012;40.984;2023-04-20T08:52:33;100625.03;;;18.60;25.61
59391;BME280;53405;57.012;40.984;2023-04-20T08:55:03;100638.44;;;18.15;26.89
59391;BME280;53405;57.012;40.984;2023-04-20T08:57:32;100630.38;;;18.28;27.55
59391;BME280;53405;57.012;40.984;2023-04-20T09:00:03;100633.41;;;17.80;28.90
59391;BME280;53405;57.012;40.984;2023-04-20T09:02:36;100625.66;;;17.65;29.59
59391;BME280;53405;57.012;40.984;2023-04-20T09:05:04;100636.13;;;17.53;29.45
59391;BME280;53405;57.012;40.984;2023-04-20T09:07:33;100634.78;;;17.17;30.38
59391;BME280;53405;57.012;40.984;2023-04-20T09:10:01;100634.97;;;17.02;30.90
59391;BME280;53405;57.012;40.984;2023-04-20T09:12:40;100635.38;;;17.12;29.45
59391;BME280;53405;57.012;40.984;2023-04-20T09:15:09;100633.13;;;16.96;29.87
59391;BME280;53405;57.012;40.984;2023-04-20T09:17:39;100642.06;;;16.68;30.25
59391;BME280;53405;57.012;40.984;2023-04-20T09:20:08;100636.66;;;16.35;29.65
59391;BME280;53405;57.012;40.984;2023-04-20T09:22:37;100633.84;;;16.43;29.88
59391;BME280;53405;57.012;40.984;2023-04-20T09:25:17;100640.38;;;16.40;29.76
59391;BME280;53405;57.012;40.984;2023-04-20T09:27:56;100650.31;;;16.12;30.47
59391;BME280;53405;57.012;40.984;2023-04-20T09:30:35;100646.97;;;15.96;30.65
59391;BME280;53405;57.012;40.984;2023-04-20T09:33:03;100650.72;;;15.74;32.02
59391;BME280;53405;57.012;40.984;2023-04-20T09:35:31;100656.84;;;15.17;32.23
59391;BME280;53405;57.012;40.984;2023-04-20T09:37:59;100663.91;;;14.82;34.79
59391;BME280;53405;57.012;40.984;2023-04-20T09:40:27;100642.53;;;14.32;37.67
59391;BME280;53405;57.012;40.984;2023-04-20T09:42:58;100666.44;;;14.39;39.82
59391;BME280;53405;57.012;40.984;2023-04-20T09:45:28;100663.72;;;14.32;43.04
59391;BME280;53405;57.012;40.984;2023-04-20T09:47:56;100681.22;;;14.63;41.44
59391;BME280;53405;57.012;40.984;2023-04-20T09:50:25;100673.53;;;14.68;39.69
59391;BME280;53405;57.012;40.984;2023-04-20T09:52:59;100691.72;;;14.05;40.62
59391;BME280;53405;57.012;40.984;2023-04-20T09:55:29;100649.44;;;12.91;44.04
59391;BME280;53405;57.012;40.984;2023-04-20T09:58:03;100685.06;;;12.48;47.03
59391;BME280;53405;57.012;40.984;2023-04-20T10:00:37;100696.09;;;12.21;50.81
59391;BME280;53405;57.012;40.984;2023-04-20T10:03:05;100682.81;;;12.37;48.46
59391;BME280;53405;57.012;40.984;2023-04-20T10:05:35;100684.69;;;12.60;52.11
59391;BME280;53405;57.012;40.984;2023-04-20T10:08:04;100674.53;;;12.95;46.33
59391;BME280;53405;57.012;40.984;2023-04-20T10:10:52;100677.09;;;13.26;47.50
59391;BME280;53405;57.012;40.984;2023-04-20T10:13:32;100669.44;;;13.31;45.52
59391;BME280;53405;57.012;40.984;2023-04-20T10:15:59;100672.22;;;13.38;46.22
59391;BME280;53405;57.012;40.984;2023-04-20T10:18:28;100645.00;;;13.29;44.09
59391;BME280;53405;57.012;40.984;2023-04-20T10:21:05;100657.81;;;13.41;48.45
59391;BME280;53405;57.012;40.984;2023-04-20T10:23:33;100648.28;;;13.54;43.26
59391;BME280;53405;57.012;40.984;2023-04-20T10:26:01;100659.28;;;13.73;44.57
59391;BME280;53405;57.012;40.984;2023-04-20T10:28:37;100663.84;;;14.09;40.61
59391;BME280;53405;57.012;40.984;2023-04-20T10:31:07;100676.31;;;14.45;42.08
59391;BME280;53405;57.012;40.984;2023-04-20T10:33:35;100674.59;;;14.74;37.21
59391;BME280;53405;57.012;40.984;2023-04-20T10:36:03;100672.31;;;14.71;39.40
59391;BME280;53405;57.012;40.984;2023-04-20T10:38:32;100648.28;;;14.72;41.49
59391;BME280;53405;57.012;40.984;2023-04-20T10:41:07;100620.19;;;14.78;35.32
59391;BME280;53405;57.012;40.984;2023-04-20T10:43:36;100635.22;;;14.92;35.47
59391;BME280;53405;57.012;40.984;2023-04-20T10:46:23;100629.75;;;15.00;32.22
59391;BME280;53405;57.012;40.984;2023-04-20T10:49:00;100615.16;;;15.11;33.98
59391;BME280;53405;57.012;40.984;2023-04-20T10:51:28;100596.06;;;15.23;35.22
59391;BME280;53405;57.012;40.984;2023-04-20T10:54:04;100611.22;;;15.64;35.33
59391;BME280;53405;57.012;40.984;2023-04-20T10:56:52;100605.25;;;15.90;34.40
59391;BME280;53405;57.012;40.984;2023-04-20T10:59:21;100599.06;;;15.83;30.06
59391;BME280;53405;57.012;40.984;2023-04-20T11:01:50;100597.00;;;15.43;29.13
59391;BME280;53405;57.012;40.984;2023-04-20T11:04:28;100571.34;;;15.15;29.94
59391;BME280;53405;57.012;40.984;2023-04-20T11:07:07;100586.09;;;15.25;30.10
59391;BME280;53405;57.012;40.984;2023-04-20T11:09:36;100584.41;;;15.17;30.06
59391;BME280;53405;57.012;40.984;2023-04-20T11:12:08;100582.59;;;15.24;30.67
59391;BME280;53405;57.012;40.984;2023-04-20T11:14:50;100566.53;;;15.32;29.20
59391;BME280;53405;57.012;40.984;2023-04-20T11:17:18;100581.75;;;15.52;29.75
59391;BME280;53405;57.012;40.984;2023-04-20T11:19:46;100563.13;;;15.80;31.47
59391;BME280;53405;57.012;40.984;2023-04-20T11:22:21;100572.72;;;16.43;31.62
59391;BME280;53405;57.012;40.984;2023-04-20T11:24:49;100561.09;;;16.91;28.73
59391;BME280;53405;57.012;40.984;2023-04-20T11:27:19;100564.56;;;16.71;29.25
59391;BME280;53405;57.012;40.984;2023-04-20T11:29:56;100558.84;;;16.94;30.17
59391;BME280;53405;57.012;40.984;2023-04-20T11:32:25;100551.13;;;17.51;26.27
59391;BME280;53405;57.012;40.984;2023-04-20T11:34:58;100519.00;;;17.46;25.88
59391;BME280;53405;57.012;40.984;2023-04-20T11:37:33;100534.94;;;18.12;24.14
59391;BME280;53405;57.012;40.984;2023-04-20T11:40:04;100539.31;;;18.56;24.41
59391;BME280;53405;57.012;40.984;2023-04-20T11:42:35;100525.31;;;19.48;23.17
59391;BME280;53405;57.012;40.984;2023-04-20T11:45:04;100531.94;;;20.37;22.17
59391;BME280;53405;57.012;40.984;2023-04-20T11:47:32;100499.16;;;19.69;22.48
59391;BME280;53405;57.012;40.984;2023-04-20T11:50:00;100519.25;;;19.41;23.65
59391;BME280;53405;57.012;40.984;2023-04-20T11:52:30;100517.81;;;19.20;23.09
59391;BME280;53405;57.012;40.984;2023-04-20T11:54:58;100513.16;;;20.13;23.85
59391;BME280;53405;57.012;40.984;2023-04-20T11:57:26;100510.25;;;20.03;22.62
59391;BME280;53405;57.012;40.984;2023-04-20T11:59:54;100502.25;;;19.54;23.06
59391;BME280;53405;57.012;40.984;2023-04-20T12:02:22;100503.88;;;20.04;23.10
59391;BME280;53405;57.012;40.984;2023-04-20T12:04:49;100494.25;;;20.27;22.16
59391;BME280;53405;57.012;40.984;2023-04-20T12:07:18;100502.91;;;20.52;22.31
59391;BME280;53405;57.012;40.984;2023-04-20T12:09:46;100487.59;;;20.83;21.05
59391;BME280;53405;57.012;40.984;2023-04-20T12:12:14;100482.75;;;21.21;21.76
59391;BME280;53405;57.012;40.984;2023-04-20T12:14:45;100473.66;;;21.74;20.86
59391;BME280;53405;57.012;40.984;2023-04-20T12:17:12;100481.88;;;21.56;21.18
59391;BME280;53405;57.012;40.984;2023-04-20T12:19:40;100485.78;;;22.28;21.06
59391;BME280;53405;57.012;40.984;2023-04-20T12:22:08;100445.47;;;22.23;18.69
59391;BME280;53405;57.012;40.984;2023-04-20T12:24:36;100454.06;;;21.33;19.85
59391;BME280;53405;57.012;40.984;2023-04-20T12:27:04;100471.47;;;21.59;19.31
59391;BME280;53405;57.012;40.984;2023-04-20T12:29:32;100469.38;;;22.07;19.27
59391;BME280;53405;57.012;40.984;2023-04-20T12:32:00;100461.75;;;22.16;18.75
59391;BME280;53405;57.012;40.984;2023-04-20T12:34:27;100460.09;;;20.52;19.99
59391;BME280;53405;57.012;40.984;2023-04-20T12:36:57;100455.16;;;20.02;20.51
59391;BME280;53405;57.012;40.984;2023-04-20T12:39:25;100450.91;;;20.36;20.33
59391;BME280;53405;57.012;40.984;2023-04-20T12:42:04;100446.75;;;20.76;19.46
59391;BME280;53405;57.012;40.984;2023-04-20T12:44:32;100441.66;;;21.15;18.60
59391;BME280;53405;57.012;40.984;2023-04-20T12:47:00;100431.69;;;20.16;19.43
59391;BME280;53405;57.012;40.984;2023-04-20T12:49:28;100437.44;;;19.77;19.40
59391;BME280;53405;57.012;40.984;2023-04-20T12:51:57;100428.78;;;19.33;20.11
59391;BME280;53405;57.012;40.984;2023-04-20T12:54:25;100420.38;;;19.29;20.34
59391;BME280;53405;57.012;40.984;2023-04-20T12:56:53;100423.31;;;19.09;20.41
59391;BME280;53405;57.012;40.984;2023-04-20T12:59:21;100424.03;;;18.80;21.23
59391;BME280;53405;57.012;40.984;2023-04-20T13:01:51;100420.16;;;18.06;20.59